Terminal Aerodrome Forecast
Issued by NWS Raleigh/Durham, NC

Home | Current Version | Previous Version | Text Only | Print | Product List | Glossary On
Versions: 1 2 3 4 5 6 7 8 9 10 11 12 13 14 15 16 17 18 19 20 21 22 23 24 25 26 27 28 29 30 31 32 33 34 35 36 37 38 39 40 41 42 43 44 45 46
479
FTUS42 KRAH 301736
TAFRDU
TAF
KRDU 301736Z 3018/3118 04008KT P6SM VCSH BKN018 BKN060
      TEMPO 3019/3023 2SM SHRA BR SCT007 BKN012 OVC025
     FM310000 05005KT P6SM SCT012 BKN025
     FM310700 VRB03KT 2SM BR BKN012
      TEMPO 3109/3112 1/2SM FG OVC002
     FM311600 06007KT P6SM SCT012 BKN025=

USA.gov is the U.S. government's official web portal to all federal, state and local government web resources and services.